createdAt,value
2022-08-03T00:01:18.539Z,97592.23
2022-08-03T00:03:46.295Z,97595.27
2022-08-03T00:06:14.093Z,97594.23
2022-08-03T00:08:42.019Z,97590.86
2022-08-03T00:11:09.762Z,97589.87
2022-08-03T00:13:37.415Z,97591.19
2022-08-03T00:16:05.794Z,97586.44
2022-08-03T00:18:33.643Z,97592.69
2022-08-03T00:21:01.559Z,97598.31
2022-08-03T00:23:51.921Z,97593.42
2022-08-03T00:25:59.114Z,97595.17
2022-08-03T00:28:26.812Z,97596.16
2022-08-03T00:30:57.861Z,97596.36
2022-08-03T00:33:25.471Z,97585.20
2022-08-03T00:35:54.800Z,97582.07
2022-08-03T00:38:22.502Z,97583.30
2022-08-03T00:40:50.095Z,97579.03
2022-08-03T00:43:18.015Z,97584.13
2022-08-03T00:45:45.844Z,97580.42
2022-08-03T00:48:27.251Z,97586.55
2022-08-03T00:50:43.827Z,97580.33
2022-08-03T00:53:13.073Z,97580.33
2022-08-03T00:55:42.467Z,97586.98
2022-08-03T00:58:11.339Z,97588.88
2022-08-03T01:00:40.942Z,97594.89
2022-08-03T01:03:10.479Z,97589.16
2022-08-03T01:06:17.762Z,97587.73
2022-08-03T01:08:50.706Z,97591.00
2022-08-03T01:11:33.175Z,97592.06
2022-08-03T01:14:30.904Z,97592.35
2022-08-03T01:17:15.944Z,97590.31
2022-08-03T01:20:04.285Z,97598.48
2022-08-03T01:23:09.477Z,97595.24
2022-08-03T01:25:44.973Z,97595.91
2022-08-03T01:28:47.042Z,97600.16
2022-08-03T01:31:18.928Z,97606.02
2022-08-03T01:33:52.120Z,97597.34
2022-08-03T01:36:31.332Z,97600.94
2022-08-03T01:39:04.882Z,97598.08
2022-08-03T01:41:55.414Z,97600.55
2022-08-03T01:44:29.358Z,97599.11
2022-08-03T01:47:03.784Z,97604.17
2022-08-03T01:49:45.234Z,97600.28
2022-08-03T01:52:30.059Z,97599.08
2022-08-03T01:55:04.071Z,97601.00
2022-08-03T01:58:05.336Z,97603.02
2022-08-03T02:00:19.022Z,97612.08
2022-08-03T02:02:50.690Z,97604.13
2022-08-03T02:05:22.778Z,97605.56
2022-08-03T02:07:51.731Z,97603.03
2022-08-03T02:10:23.579Z,97600.73
2022-08-03T02:12:52.187Z,97599.16
2022-08-03T02:15:20.798Z,97597.27
2022-08-03T02:17:49.414Z,97598.84
2022-08-03T02:20:18.073Z,97600.22
2022-08-03T02:22:47.449Z,97600.01
2022-08-03T02:25:17.430Z,97600.42
2022-08-03T02:27:50.442Z,97592.94
2022-08-03T02:30:20.153Z,97594.68
2022-08-03T02:32:52.901Z,97598.00
2022-08-03T02:35:24.948Z,97598.52
2022-08-03T02:37:58.565Z,97597.23
2022-08-03T02:40:29.593Z,97588.92
2022-08-03T02:43:05.265Z,97585.09
2022-08-03T02:45:35.873Z,97590.09
2022-08-03T02:48:06.678Z,97582.84
2022-08-03T02:50:35.167Z,97580.04
2022-08-03T02:53:04.055Z,97586.44
2022-08-03T02:55:34.843Z,97589.55
2022-08-03T02:58:04.080Z,97590.13
2022-08-03T03:00:33.953Z,97587.16
2022-08-03T03:03:04.543Z,97587.16
2022-08-03T03:05:53.716Z,97589.48
2022-08-03T03:08:02.631Z,97591.06
2022-08-03T03:10:30.716Z,97594.23
2022-08-03T03:12:59.867Z,97594.23
2022-08-03T03:15:31.311Z,97599.13
2022-08-03T03:18:01.043Z,97602.45
2022-08-03T03:20:30.643Z,97600.63
2022-08-03T03:23:01.054Z,97605.17
2022-08-03T03:25:33.417Z,97606.11
2022-08-03T03:28:03.046Z,97606.31
2022-08-03T03:30:31.193Z,97607.13
2022-08-03T03:32:59.339Z,97601.08
2022-08-03T03:35:27.910Z,97607.13
2022-08-03T03:37:56.491Z,97611.38
2022-08-03T03:40:24.654Z,97610.38
2022-08-03T03:42:52.621Z,97612.09
2022-08-03T03:45:22.358Z,97612.09
2022-08-03T03:47:52.324Z,97615.20
2022-08-03T03:50:22.354Z,97618.14
2022-08-03T03:52:50.031Z,97619.38
2022-08-03T03:55:19.066Z,97617.77
2022-08-03T03:57:46.647Z,97620.95
2022-08-03T04:00:17.144Z,97614.52
2022-08-03T04:02:45.752Z,97621.36
2022-08-03T04:05:33.278Z,97625.84
2022-08-03T04:08:26.896Z,97627.78
2022-08-03T04:11:08.721Z,97625.84
2022-08-03T04:13:48.085Z,97629.02
2022-08-03T04:16:19.251Z,97627.48
2022-08-03T04:18:51.352Z,97635.17
2022-08-03T04:21:22.905Z,97632.64
2022-08-03T04:23:55.203Z,97638.98
2022-08-03T04:26:27.228Z,97638.70
2022-08-03T04:28:55.752Z,97644.28
2022-08-03T04:31:24.446Z,97639.95
2022-08-03T04:33:53.891Z,97645.39
2022-08-03T04:36:26.870Z,97647.50
2022-08-03T04:39:06.213Z,97645.33
2022-08-03T04:42:04.358Z,97646.30
2022-08-03T04:44:06.945Z,97646.85
2022-08-03T04:46:39.870Z,97643.06
2022-08-03T04:49:10.053Z,97638.89
2022-08-03T04:51:40.159Z,97640.95
2022-08-03T04:54:13.488Z,97639.45
2022-08-03T04:56:41.187Z,97636.39
2022-08-03T04:59:10.284Z,97642.36
2022-08-03T05:01:40.150Z,97639.23
2022-08-03T05:04:08.209Z,97645.35
2022-08-03T05:06:35.995Z,97647.13
2022-08-03T05:09:05.609Z,97647.97
2022-08-03T05:11:34.015Z,97643.32
2022-08-03T05:14:01.558Z,97648.06
2022-08-03T05:16:29.010Z,97651.24
2022-08-03T05:18:56.491Z,97647.33
2022-08-03T05:21:24.229Z,97649.34
2022-08-03T05:23:51.896Z,97653.31
2022-08-03T05:26:19.511Z,97657.09
2022-08-03T05:28:51.014Z,97656.97
2022-08-03T05:31:16.816Z,97653.89
2022-08-03T05:33:44.542Z,97664.71
2022-08-03T05:36:12.195Z,97657.11
2022-08-03T05:38:40.192Z,97666.58
2022-08-03T05:41:21.188Z,97658.83
2022-08-03T05:43:38.679Z,97665.16
2022-08-03T05:46:12.028Z,97665.25
2022-08-03T05:48:36.578Z,97664.55
2022-08-03T05:51:06.430Z,97665.81
2022-08-03T05:53:35.154Z,97666.72
2022-08-03T05:56:13.259Z,97666.84
2022-08-03T05:58:32.865Z,97669.50
2022-08-03T06:01:01.187Z,97669.83
2022-08-03T06:03:28.733Z,97666.41
2022-08-03T06:06:00.274Z,97672.25
2022-08-03T06:08:25.798Z,97666.22
2022-08-03T06:10:53.347Z,97669.27
2022-08-03T06:13:21.665Z,97671.90
2022-08-03T06:15:49.364Z,97674.77
2022-08-03T06:18:17.363Z,97667.75
2022-08-03T06:20:45.254Z,97664.87
2022-08-03T06:23:17.585Z,97661.92
2022-08-03T06:25:44.232Z,97664.70
2022-08-03T06:28:35.353Z,97665.12
2022-08-03T06:30:43.295Z,97664.17
2022-08-03T06:33:11.067Z,97665.17
2022-08-03T06:35:38.639Z,97659.89
2022-08-03T06:38:08.514Z,97655.77
2022-08-03T06:40:38.908Z,97662.30
2022-08-03T06:43:12.348Z,97663.89
2022-08-03T06:45:37.687Z,97662.50
2022-08-03T06:48:13.551Z,97659.95
2022-08-03T06:50:43.934Z,97659.78
2022-08-03T06:53:18.254Z,97669.22
2022-08-03T06:55:41.882Z,97668.64
2022-08-03T06:58:10.390Z,97666.48
2022-08-03T07:00:38.124Z,97664.52
2022-08-03T07:03:05.815Z,97660.75
2022-08-03T07:05:34.769Z,97655.65
2022-08-03T07:08:02.800Z,97662.14
2022-08-03T07:10:30.531Z,97658.97
2022-08-03T07:12:57.858Z,97659.19
2022-08-03T07:15:53.908Z,97665.89
2022-08-03T07:17:55.438Z,97664.66
2022-08-03T07:20:22.986Z,97663.27
2022-08-03T07:22:50.791Z,97658.92
2022-08-03T07:25:19.453Z,97666.17
2022-08-03T07:27:51.690Z,97656.86
2022-08-03T07:30:18.633Z,97656.42
2022-08-03T07:32:50.363Z,97659.52
2022-08-03T07:35:24.498Z,97657.88
2022-08-03T07:37:53.040Z,97655.49
2022-08-03T07:40:14.760Z,97654.27
2022-08-03T07:42:42.393Z,97647.52
2022-08-03T07:45:10.354Z,97651.55
2022-08-03T07:47:39.999Z,97653.07
2022-08-03T07:50:09.738Z,97653.05
2022-08-03T07:52:50.599Z,97651.98
2022-08-03T07:55:33.401Z,97650.69
2022-08-03T07:58:09.534Z,97661.25
2022-08-03T08:00:48.742Z,97658.15
2022-08-03T08:03:17.957Z,97659.95
2022-08-03T08:05:46.303Z,97655.69
2022-08-03T08:08:15.514Z,97654.13
2022-08-03T08:10:56.897Z,97656.78
2022-08-03T08:13:14.691Z,97652.20
2022-08-03T08:15:43.741Z,97649.64
2022-08-03T08:18:12.335Z,97656.20
2022-08-03T08:20:39.957Z,97646.56
2022-08-03T08:23:27.611Z,97647.97
2022-08-03T08:25:39.301Z,97649.53
2022-08-03T08:28:31.373Z,97652.13
2022-08-03T08:30:36.502Z,97646.66
2022-08-03T08:33:03.989Z,97650.95
2022-08-03T08:35:31.664Z,97646.06
2022-08-03T08:38:05.641Z,97642.19
2022-08-03T08:40:30.513Z,97643.91
2022-08-03T08:42:59.250Z,97642.31
2022-08-03T08:45:27.706Z,97642.43
2022-08-03T08:48:01.008Z,97645.46
2022-08-03T08:50:28.098Z,97638.58
2022-08-03T08:53:00.545Z,97637.58
2022-08-03T08:55:29.534Z,97633.85
2022-08-03T08:58:05.935Z,97633.12
2022-08-03T09:00:33.849Z,97634.62
2022-08-03T09:03:01.739Z,97638.20
2022-08-03T09:05:54.877Z,97636.95
2022-08-03T09:08:01.896Z,97644.20
2022-08-03T09:10:29.807Z,97638.23
2022-08-03T09:12:57.630Z,97639.96
2022-08-03T09:15:31.819Z,97639.94
2022-08-03T09:18:03.532Z,97639.09
2022-08-03T09:20:34.287Z,97639.82
2022-08-03T09:23:43.020Z,97628.16
2022-08-03T09:25:42.485Z,97639.45
2022-08-03T09:28:52.705Z,97634.66
2022-08-03T09:30:58.785Z,97631.53
2022-08-03T09:33:26.483Z,97627.90
2022-08-03T09:35:57.841Z,97628.77
2022-08-03T09:38:26.981Z,97626.34
2022-08-03T09:40:59.883Z,97625.09
2022-08-03T09:43:27.165Z,97628.38
2022-08-03T09:46:04.543Z,97620.23
2022-08-03T09:48:34.195Z,97626.58
2022-08-03T09:51:13.611Z,97618.67
2022-08-03T09:53:57.102Z,97619.80
2022-08-03T09:56:33.568Z,97620.48
2022-08-03T09:58:47.273Z,97617.16
2022-08-03T10:01:24.148Z,97613.52
2022-08-03T10:04:04.152Z,97602.81
2022-08-03T10:06:21.871Z,97604.88
2022-08-03T10:09:11.679Z,97614.16
2022-08-03T10:11:42.271Z,97610.92
2022-08-03T10:14:14.710Z,97598.58
2022-08-03T10:16:42.391Z,97600.84
2022-08-03T10:19:10.196Z,97599.22
2022-08-03T10:21:41.173Z,97598.19
2022-08-03T10:24:12.685Z,97595.20
2022-08-03T10:26:49.808Z,97599.17
2022-08-03T10:29:16.285Z,97592.63
2022-08-03T10:31:57.716Z,97595.88
2022-08-03T10:34:21.446Z,97592.97
2022-08-03T10:36:53.089Z,97590.38
2022-08-03T10:39:24.029Z,97589.70
2022-08-03T10:41:54.092Z,97584.11
2022-08-03T10:44:26.208Z,97581.82
2022-08-03T10:46:54.513Z,97586.94
2022-08-03T10:49:34.403Z,97584.52
2022-08-03T10:51:54.436Z,97583.00
2022-08-03T10:55:00.728Z,97580.64
2022-08-03T10:57:49.936Z,97573.49
2022-08-03T11:00:21.681Z,97574.62
2022-08-03T11:03:10.194Z,97568.47
2022-08-03T11:05:41.703Z,97564.95
2022-08-03T11:08:27.470Z,97570.11
2022-08-03T11:11:00.515Z,97558.52
2022-08-03T11:13:31.562Z,97569.95
2022-08-03T11:16:04.895Z,97560.74
2022-08-03T11:18:32.641Z,97560.75
2022-08-03T11:21:00.827Z,97550.12
2022-08-03T11:24:05.275Z,97554.80
2022-08-03T11:26:22.210Z,97546.27
2022-08-03T11:28:50.113Z,97540.97
2022-08-03T11:34:10.909Z,97534.91
2022-08-03T11:37:24.067Z,97541.34
2022-08-03T11:39:54.928Z,97531.14
2022-08-03T11:42:28.682Z,97526.50
2022-08-03T11:44:58.532Z,97522.52
2022-08-03T11:47:29.591Z,97525.11
2022-08-03T11:50:01.482Z,97512.26
2022-08-03T11:52:35.998Z,97519.11
2022-08-03T11:55:11.089Z,97514.43
2022-08-03T11:59:16.470Z,97512.75
2022-08-03T12:00:25.948Z,97507.02
2022-08-03T12:03:07.729Z,97503.58
2022-08-03T12:05:51.202Z,97500.02
2022-08-03T12:08:14.910Z,97497.39
2022-08-03T12:10:49.842Z,97500.52
2022-08-03T12:14:32.971Z,97501.57
2022-08-03T12:15:56.745Z,97497.34
2022-08-03T12:18:25.522Z,97498.11
2022-08-03T12:20:57.541Z,97492.56
2022-08-03T12:23:27.424Z,97491.27
2022-08-03T12:26:02.827Z,97491.28
2022-08-03T12:28:36.231Z,97479.80
2022-08-03T12:31:09.028Z,97484.67
2022-08-03T12:33:59.061Z,97485.91
2022-08-03T12:36:27.848Z,97486.98
2022-08-03T12:39:02.372Z,97476.71
2022-08-03T12:41:39.574Z,97484.67
2022-08-03T12:44:09.234Z,97481.06
2022-08-03T12:46:44.143Z,97473.57
2022-08-03T12:49:14.697Z,97473.42
2022-08-03T12:51:47.840Z,97480.09
2022-08-03T12:54:25.562Z,97478.69
2022-08-03T12:57:03.511Z,97474.63
2022-08-03T12:59:40.424Z,97466.24
2022-08-03T13:02:04.910Z,97465.95
2022-08-03T13:04:36.306Z,97466.08
2022-08-03T13:07:14.262Z,97474.22
2022-08-03T13:09:49.493Z,97464.69
2022-08-03T13:12:27.046Z,97470.64
2022-08-03T13:15:00.261Z,97472.22
2022-08-03T13:17:28.516Z,97466.70
2022-08-03T13:19:56.383Z,97464.42
2022-08-03T13:22:29.748Z,97456.67
2022-08-03T13:24:57.823Z,97455.44
2022-08-03T13:28:04.291Z,97457.84
2022-08-03T13:29:57.679Z,97462.52
2022-08-03T13:32:25.653Z,97458.66
2022-08-03T13:34:53.334Z,97456.16
2022-08-03T13:37:21.475Z,97452.73
2022-08-03T13:39:59.212Z,97450.70
2022-08-03T13:42:18.878Z,97447.46
2022-08-03T13:44:46.649Z,97452.09
2022-08-03T13:47:14.559Z,97453.41
2022-08-03T13:49:42.472Z,97451.07
2022-08-03T13:52:12.109Z,97450.30
2022-08-03T13:54:39.981Z,97449.36
2022-08-03T13:58:04.968Z,97447.47
2022-08-03T13:59:40.580Z,97445.66
2022-08-03T14:02:08.522Z,97449.90
2022-08-03T14:04:36.238Z,97450.22
2022-08-03T14:07:04.447Z,97445.95
2022-08-03T14:09:32.026Z,97441.81
2022-08-03T14:12:04.031Z,97435.77
2022-08-03T14:14:29.802Z,97439.53
2022-08-03T14:16:57.568Z,97437.05
2022-08-03T14:19:25.524Z,97438.35
2022-08-03T14:21:53.309Z,97427.33
2022-08-03T14:24:23.025Z,97434.31
2022-08-03T14:26:51.656Z,97433.55
2022-08-03T14:29:19.249Z,97425.66
2022-08-03T14:32:10.974Z,97422.58
2022-08-03T14:34:16.382Z,97422.42
2022-08-03T14:36:44.015Z,97419.30
2022-08-03T14:39:12.291Z,97419.30
2022-08-03T14:41:39.899Z,97421.49
2022-08-03T14:44:07.612Z,97407.79
2022-08-03T14:46:35.416Z,97417.44
2022-08-03T14:50:37.961Z,97411.70
2022-08-03T14:51:34.416Z,97410.92
2022-08-03T14:54:02.152Z,97407.65
2022-08-03T14:56:29.966Z,97405.62
2022-08-03T14:58:57.698Z,97400.50
2022-08-03T15:02:02.513Z,97403.61
2022-08-03T15:03:54.970Z,97401.73
2022-08-03T15:06:22.910Z,97403.28
2022-08-03T15:09:20.870Z,97400.80
2022-08-03T15:11:20.273Z,97397.08
2022-08-03T15:13:48.128Z,97400.50
2022-08-03T15:16:15.468Z,97398.77
2022-08-03T15:18:43.379Z,97399.88
2022-08-03T15:21:16.558Z,97398.33
2022-08-03T15:23:40.658Z,97391.64
2022-08-03T15:26:32.749Z,97396.44
2022-08-03T15:28:37.858Z,97393.91
2022-08-03T15:31:06.694Z,97394.20
2022-08-03T15:33:35.140Z,97396.98
2022-08-03T15:36:04.511Z,97399.15
2022-08-03T15:38:32.546Z,97395.23
2022-08-03T15:41:00.206Z,97396.48
2022-08-03T15:43:28.235Z,97395.84
2022-08-03T15:46:26.538Z,97397.72
2022-08-03T15:48:26.663Z,97397.71
2022-08-03T15:50:54.616Z,97383.07
2022-08-03T15:53:22.681Z,97384.13
2022-08-03T15:55:50.312Z,97387.98
2022-08-03T15:59:04.069Z,97384.38
2022-08-03T16:00:47.831Z,97387.13
2022-08-03T16:03:15.637Z,97387.44
2022-08-03T16:05:43.422Z,97383.70
2022-08-03T16:08:13.880Z,97389.29
2022-08-03T16:10:41.483Z,97396.70
2022-08-03T16:13:09.331Z,97382.86
2022-08-03T16:15:38.871Z,97386.39
2022-08-03T16:18:07.218Z,97384.17
2022-08-03T16:20:35.509Z,97385.98
2022-08-03T16:23:10.702Z,97381.44
2022-08-03T16:25:34.651Z,97389.58
2022-08-03T16:28:07.936Z,97388.28
2022-08-03T16:30:31.817Z,97388.71
2022-08-03T16:33:00.957Z,97386.02
2022-08-03T16:35:28.710Z,97390.14
2022-08-03T16:37:57.040Z,97390.08
2022-08-03T16:40:25.692Z,97386.94
2022-08-03T16:42:54.172Z,97386.72
2022-08-03T16:45:22.464Z,97397.96
2022-08-03T16:48:01.679Z,97399.63
2022-08-03T16:50:21.071Z,97401.41
2022-08-03T16:52:49.897Z,97407.88
2022-08-03T16:55:18.537Z,97408.45
2022-08-03T16:57:58.882Z,97401.28
2022-08-03T17:00:34.109Z,97408.06
2022-08-03T17:02:50.083Z,97402.28
2022-08-03T17:05:18.197Z,97409.36
2022-08-03T17:07:50.715Z,97422.02
2022-08-03T17:10:17.016Z,97413.60
2022-08-03T17:12:46.676Z,97419.74
2022-08-03T17:15:14.539Z,97413.16
2022-08-03T17:17:53.478Z,97416.19
2022-08-03T17:20:18.093Z,97418.73
2022-08-03T17:22:51.393Z,97420.41
2022-08-03T17:25:51.418Z,97426.36
2022-08-03T17:28:50.873Z,97430.45
2022-08-03T17:30:25.186Z,97425.27
2022-08-03T17:32:57.591Z,97435.48
2022-08-03T17:35:23.184Z,97434.69
2022-08-03T17:38:03.387Z,97435.88
2022-08-03T17:40:22.078Z,97437.91
2022-08-03T17:42:51.103Z,97442.46
2022-08-03T17:45:20.480Z,97441.88
2022-08-03T17:47:57.176Z,97445.83
2022-08-03T17:50:24.127Z,97449.31
2022-08-03T17:52:50.314Z,97451.28
2022-08-03T17:55:54.915Z,97451.61
2022-08-03T17:58:03.338Z,97452.55
2022-08-03T18:00:51.801Z,97450.96
2022-08-03T18:03:58.340Z,97459.15
2022-08-03T18:06:16.205Z,97452.61
2022-08-03T18:08:55.049Z,97459.66
2022-08-03T18:11:35.626Z,97467.41
2022-08-03T18:14:25.582Z,97469.25
2022-08-03T18:17:04.933Z,97471.91
2022-08-03T18:20:03.506Z,97473.02
2022-08-03T18:22:07.282Z,97473.26
2022-08-03T18:24:38.304Z,97473.14
2022-08-03T18:27:07.479Z,97480.66
2022-08-03T18:29:36.724Z,97485.37
2022-08-03T18:32:13.272Z,97486.13
2022-08-03T18:34:41.081Z,97492.98
2022-08-03T18:37:08.207Z,97491.72
2022-08-03T18:39:39.081Z,97500.94
2022-08-03T18:42:08.305Z,97512.91
2022-08-03T18:44:54.095Z,97509.80
2022-08-03T18:47:51.984Z,97516.59
2022-08-03T18:50:33.441Z,97521.98
2022-08-03T18:53:15.702Z,97522.04
2022-08-03T18:56:01.236Z,97533.57
2022-08-03T18:58:21.623Z,97531.05
2022-08-03T19:01:58.200Z,97525.84
2022-08-03T19:04:03.713Z,97537.22
2022-08-03T19:06:33.386Z,97537.36
2022-08-03T19:09:09.604Z,97541.81
2022-08-03T19:12:13.104Z,97542.29
2022-08-03T19:14:18.679Z,97543.70
2022-08-03T19:16:49.231Z,97542.55
2022-08-03T19:19:20.972Z,97539.66
2022-08-03T19:21:51.957Z,97553.92
2022-08-03T19:24:22.084Z,97548.45
2022-08-03T19:26:55.652Z,97559.34
2022-08-03T19:29:24.705Z,97557.62
2022-08-03T19:31:59.365Z,97564.37
2022-08-03T19:34:29.997Z,97566.20
2022-08-03T19:36:58.777Z,97561.48
2022-08-03T19:39:26.402Z,97564.84
2022-08-03T19:41:58.425Z,97563.84
2022-08-03T19:44:31.429Z,97575.11
2022-08-03T19:47:03.562Z,97573.73
2022-08-03T19:50:00.037Z,97581.03
2022-08-03T19:52:10.850Z,97577.14
2022-08-03T19:54:53.950Z,97573.43
2022-08-03T19:57:19.468Z,97570.48
2022-08-03T19:59:50.630Z,97571.28
2022-08-03T20:02:26.206Z,97566.97
2022-08-03T20:04:49.959Z,97580.01
2022-08-03T20:07:22.625Z,97575.11
2022-08-03T20:09:48.562Z,97575.72
2022-08-03T20:12:18.777Z,97579.28
2022-08-03T20:14:48.685Z,97580.48
2022-08-03T20:17:21.139Z,97577.97
2022-08-03T20:19:51.318Z,97574.22
2022-08-03T20:22:31.157Z,97578.58
2022-08-03T20:25:03.559Z,97573.07
2022-08-03T20:28:07.001Z,97572.67
2022-08-03T20:30:08.040Z,97568.94
2022-08-03T20:32:35.892Z,97572.30
2022-08-03T20:35:05.057Z,97569.95
2022-08-03T20:37:35.276Z,97572.31
2022-08-03T20:40:06.716Z,97570.74
2022-08-03T20:42:34.239Z,97575.48
2022-08-03T20:45:05.549Z,97579.62
2022-08-03T20:47:35.693Z,97584.52
2022-08-03T20:50:07.800Z,97579.41
2022-08-03T20:52:36.839Z,97586.31
2022-08-03T20:55:13.042Z,97580.61
2022-08-03T20:57:37.840Z,97589.48
2022-08-03T21:00:10.870Z,97580.42
2022-08-03T21:02:41.136Z,97589.70
2022-08-03T21:05:09.744Z,97589.69
2022-08-03T21:08:06.495Z,97593.26
2022-08-03T21:10:17.893Z,97601.52
2022-08-03T21:13:13.573Z,97596.59
2022-08-03T21:16:06.274Z,97593.63
2022-08-03T21:18:01.506Z,97597.97
2022-08-03T21:20:34.690Z,97595.59
2022-08-03T21:23:03.997Z,97597.97
2022-08-03T21:25:33.857Z,97600.31
2022-08-03T21:28:01.607Z,97601.31
2022-08-03T21:30:30.433Z,97603.28
2022-08-03T21:32:58.606Z,97600.70
2022-08-03T21:35:26.894Z,97603.67
2022-08-03T21:38:13.162Z,97602.27
2022-08-03T21:40:41.209Z,97603.82
2022-08-03T21:43:09.568Z,97607.77
2022-08-03T21:45:54.633Z,97605.38
2022-08-03T21:48:25.515Z,97613.27
2022-08-03T21:50:54.120Z,97612.48
2022-08-03T21:53:26.203Z,97620.73
2022-08-03T21:56:08.993Z,97612.47
2022-08-03T21:58:50.984Z,97618.75
2022-08-03T22:01:22.541Z,97623.45
2022-08-03T22:03:54.074Z,97622.06
2022-08-03T22:06:27.076Z,97618.51
2022-08-03T22:08:53.838Z,97619.09
2022-08-03T22:11:21.664Z,97615.94
2022-08-03T22:13:50.636Z,97628.31
2022-08-03T22:16:19.652Z,97623.57
2022-08-03T22:18:47.369Z,97628.50
2022-08-03T22:21:16.915Z,97626.09
2022-08-03T22:23:50.612Z,97619.23
2022-08-03T22:26:32.475Z,97622.92
2022-08-03T22:28:59.705Z,97623.50
2022-08-03T22:31:30.523Z,97624.27
2022-08-03T22:33:57.421Z,97618.38
2022-08-03T22:36:25.848Z,97626.44
2022-08-03T22:38:53.621Z,97626.44
2022-08-03T22:41:21.339Z,97619.14
2022-08-03T22:43:49.663Z,97616.20
2022-08-03T22:46:21.613Z,97619.12
2022-08-03T22:48:51.531Z,97631.25
2022-08-03T22:51:20.998Z,97625.54
2022-08-03T22:53:49.087Z,97627.28
2022-08-03T22:56:16.795Z,97621.16
2022-08-03T22:58:44.626Z,97633.73
2022-08-03T23:01:16.063Z,97633.89
2022-08-03T23:04:01.247Z,97633.09
2022-08-03T23:06:21.066Z,97636.40
2022-08-03T23:08:50.487Z,97634.22
2022-08-03T23:11:18.958Z,97634.58
2022-08-03T23:13:51.115Z,97631.61
2022-08-03T23:16:28.924Z,97635.09
2022-08-03T23:18:52.559Z,97641.73
2022-08-03T23:21:53.782Z,97631.49
2022-08-03T23:23:50.093Z,97634.05
2022-08-03T23:26:18.548Z,97636.56
2022-08-03T23:28:46.962Z,97644.98
2022-08-03T23:31:15.694Z,97639.25
2022-08-03T23:33:45.178Z,97642.16
2022-08-03T23:36:31.066Z,97644.13
2022-08-03T23:38:48.334Z,97640.98
2022-08-03T23:41:19.066Z,97644.48
2022-08-03T23:43:51.860Z,97641.12
2022-08-03T23:46:19.200Z,97639.13
2022-08-03T23:48:46.631Z,97643.98
2022-08-03T23:51:25.450Z,97642.00
2022-08-03T23:54:20.929Z,97645.30
2022-08-03T23:56:59.643Z,97640.35
2022-08-03T23:59:58.547Z,97641.49
